Terminal Aerodrome Forecast
Issued by NWS

Home | Current Version | Previous Version | Text Only | Print | Product List | Glossary On
Versions: 1 2 3 4 5 6 7 8 9 10 11 12 13 14 15 16 17 18
131
FTUS43 KAPX 250525
TAFPLN
TAF
KPLN 250525Z 2506/2606 VRB03KT P6SM -SHRA SCT030 OVC040
     FM250900 VRB03KT P6SM VCSH OVC025
     FM251600 31005KT P6SM VCSH OVC050
     FM252100 36005KT P6SM VCSH BKN050
     FM260000 30004KT P6SM BKN070=

USA.gov is the U.S. government's official web portal to all federal, state and local government web resources and services.